createdAt,value
2018-02-25T00:02:22.921Z,103136.91
2018-02-25T00:04:51.257Z,103145.56
2018-02-25T00:07:19.641Z,103130.36
2018-02-25T00:09:47.970Z,103136.27
2018-02-25T00:12:16.282Z,103136.77
2018-02-25T00:14:44.675Z,103143.49
2018-02-25T00:17:13.881Z,103129.42
2018-02-25T00:19:42.199Z,103140.17
2018-02-25T00:22:10.543Z,103143.42
2018-02-25T00:24:38.880Z,103141.33
2018-02-25T00:27:07.277Z,103136.41
2018-02-25T00:29:35.651Z,103134.09
2018-02-25T00:32:03.999Z,103141.77
2018-02-25T00:34:32.331Z,103140.62
2018-02-25T00:37:01.568Z,103141.41
2018-02-25T00:39:29.901Z,103139.38
2018-02-25T00:41:59.334Z,103147.14
2018-02-25T00:44:27.667Z,103136.08
2018-02-25T00:46:56.758Z,103136.27
2018-02-25T00:49:26.533Z,103129.59
2018-02-25T00:51:54.864Z,103134.05
2018-02-25T00:54:23.967Z,103135.06
2018-02-25T00:56:53.038Z,103144.70
2018-02-25T00:59:21.366Z,103131.23
2018-02-25T01:01:49.675Z,103136.90
2018-02-25T01:04:18.031Z,103122.84
2018-02-25T01:06:46.366Z,103133.46
2018-02-25T01:09:14.840Z,103135.98
2018-02-25T01:11:43.185Z,103142.08
2018-02-25T01:14:11.576Z,103147.55
2018-02-25T01:16:39.935Z,103144.30
2018-02-25T01:19:08.249Z,103136.87
2018-02-25T01:21:36.592Z,103148.23
2018-02-25T01:24:04.931Z,103146.98
2018-02-25T01:26:34.774Z,103141.39
2018-02-25T01:29:03.121Z,103146.76
2018-02-25T01:31:31.462Z,103141.55
2018-02-25T01:33:59.810Z,103148.78
2018-02-25T01:36:28.925Z,103141.18
2018-02-25T01:38:57.280Z,103149.53
2018-02-25T01:41:25.629Z,103140.23
2018-02-25T01:43:53.958Z,103139.02
2018-02-25T01:46:23.026Z,103136.98
2018-02-25T01:48:51.354Z,103136.49
2018-02-25T01:51:20.239Z,103140.09
2018-02-25T01:53:48.585Z,103142.41
2018-02-25T01:56:16.938Z,103137.53
2018-02-25T01:58:45.261Z,103137.87
2018-02-25T02:01:14.511Z,103148.55
2018-02-25T02:03:43.094Z,103142.55
2018-02-25T02:06:11.442Z,103146.94
2018-02-25T02:08:40.561Z,103149.16
2018-02-25T02:11:08.936Z,103146.02
2018-02-25T02:13:37.303Z,103150.60
2018-02-25T02:16:05.673Z,103151.00
2018-02-25T02:18:34.872Z,103145.89
2018-02-25T02:21:03.975Z,103140.97
2018-02-25T02:23:33.127Z,103145.94
2018-02-25T02:26:01.496Z,103142.37
2018-02-25T02:28:29.830Z,103133.78
2018-02-25T02:30:58.985Z,103129.86
2018-02-25T02:33:27.594Z,103138.30
2018-02-25T02:35:55.997Z,103129.09
2018-02-25T02:38:25.176Z,103132.82
2018-02-25T02:40:54.433Z,103130.98
2018-02-25T02:43:23.818Z,103134.92
2018-02-25T02:45:52.978Z,103130.36
2018-02-25T02:48:21.361Z,103140.83
2018-02-25T02:50:49.719Z,103153.22
2018-02-25T02:53:18.107Z,103152.47
2018-02-25T02:55:46.439Z,103152.09
2018-02-25T02:58:15.571Z,103155.97
2018-02-25T03:00:44.733Z,103163.70
2018-02-25T03:03:13.122Z,103163.39
2018-02-25T03:05:42.392Z,103169.05
2018-02-25T03:08:11.569Z,103175.94
2018-02-25T03:10:39.923Z,103178.64
2018-02-25T03:13:08.297Z,103194.87
2018-02-25T03:15:36.623Z,103185.25
2018-02-25T03:18:04.965Z,103186.13
2018-02-25T03:20:33.324Z,103187.75
2018-02-25T03:23:02.410Z,103189.90
2018-02-25T03:25:30.728Z,103181.63
2018-02-25T03:27:59.051Z,103184.36
2018-02-25T03:30:28.396Z,103187.48
2018-02-25T03:32:57.492Z,103181.00
2018-02-25T03:35:26.671Z,103180.15
2018-02-25T03:37:55.035Z,103187.75
2018-02-25T03:40:23.351Z,103179.14
2018-02-25T03:42:52.523Z,103184.00
2018-02-25T03:45:21.000Z,103193.73
2018-02-25T03:47:49.339Z,103185.22
2018-02-25T03:50:17.795Z,103189.30
2018-02-25T03:52:47.029Z,103186.28
2018-02-25T03:55:15.352Z,103175.42
2018-02-25T03:57:43.701Z,103182.39
2018-02-25T04:00:12.021Z,103187.19
2018-02-25T04:02:40.372Z,103185.09
2018-02-25T04:05:08.796Z,103201.58
2018-02-25T04:07:37.882Z,103199.97
2018-02-25T04:10:06.342Z,103191.66
2018-02-25T04:12:34.680Z,103196.22
2018-02-25T04:15:02.996Z,103195.93
2018-02-25T04:17:31.363Z,103190.44
2018-02-25T04:19:59.712Z,103183.91
2018-02-25T04:22:28.692Z,103183.63
2018-02-25T04:24:58.805Z,103173.73
2018-02-25T04:27:27.142Z,103197.16
2018-02-25T04:29:55.529Z,103193.69
2018-02-25T04:32:23.953Z,103188.43
2018-02-25T04:34:52.386Z,103193.38
2018-02-25T04:37:21.502Z,103194.85
2018-02-25T04:39:50.898Z,103195.78
2018-02-25T04:42:19.360Z,103197.92
2018-02-25T04:44:47.705Z,103204.48
2018-02-25T04:47:16.052Z,103207.13
2018-02-25T04:49:45.183Z,103205.65
2018-02-25T04:52:13.616Z,103216.19
2018-02-25T04:54:42.022Z,103211.02
2018-02-25T04:57:10.463Z,103208.25
2018-02-25T04:59:38.822Z,103210.44
2018-02-25T05:02:07.226Z,103217.09
2018-02-25T05:04:36.256Z,103220.98
2018-02-25T05:07:04.736Z,103220.61
2018-02-25T05:09:33.100Z,103218.47
2018-02-25T05:12:01.514Z,103219.97
2018-02-25T05:14:30.781Z,103213.14
2018-02-25T05:16:59.127Z,103225.36
2018-02-25T05:19:28.233Z,103233.52
2018-02-25T05:21:57.372Z,103236.64
2018-02-25T05:24:25.753Z,103235.71
2018-02-25T05:26:54.154Z,103238.00
2018-02-25T05:29:23.280Z,103238.35
2018-02-25T05:31:51.687Z,103240.59
2018-02-25T05:34:20.138Z,103245.39
2018-02-25T05:36:48.540Z,103239.41
2018-02-25T05:39:17.746Z,103250.08
2018-02-25T05:41:46.863Z,103247.17
2018-02-25T05:44:15.289Z,103250.77
2018-02-25T05:46:43.687Z,103260.23
2018-02-25T05:49:12.100Z,103256.09
2018-02-25T05:51:41.220Z,103253.51
2018-02-25T05:54:09.580Z,103261.14
2018-02-25T05:56:37.914Z,103259.97
2018-02-25T05:59:06.292Z,103260.81
2018-02-25T06:01:34.644Z,103262.77
2018-02-25T06:04:02.976Z,103259.94
2018-02-25T06:06:31.332Z,103252.53
2018-02-25T06:08:59.668Z,103252.20
2018-02-25T06:11:27.994Z,103250.90
2018-02-25T06:13:56.324Z,103256.66
2018-02-25T06:16:24.653Z,103256.95
2018-02-25T06:18:52.981Z,103259.14
2018-02-25T06:21:21.363Z,103267.43
2018-02-25T06:23:50.475Z,103261.45
2018-02-25T06:26:18.859Z,103271.48
2018-02-25T06:28:47.248Z,103282.52
2018-02-25T06:31:15.650Z,103284.19
2018-02-25T06:33:44.070Z,103293.72
2018-02-25T06:36:12.578Z,103298.54
2018-02-25T06:38:40.982Z,103300.02
2018-02-25T06:41:09.396Z,103305.97
2018-02-25T06:43:37.791Z,103314.57
2018-02-25T06:46:06.160Z,103325.34
2018-02-25T06:48:34.490Z,103321.60
2018-02-25T06:51:02.842Z,103319.34
2018-02-25T06:53:31.301Z,103328.46
2018-02-25T06:55:59.759Z,103328.53
2018-02-25T06:58:28.121Z,103324.51
2018-02-25T07:00:56.573Z,103321.16
2018-02-25T07:03:24.972Z,103316.52
2018-02-25T07:05:54.137Z,103322.68
2018-02-25T07:08:22.488Z,103320.94
2018-02-25T07:10:51.748Z,103321.09
2018-02-25T07:13:21.090Z,103318.55
2018-02-25T07:15:49.536Z,103316.06
2018-02-25T07:18:19.204Z,103329.34
2018-02-25T07:20:47.623Z,103336.06
2018-02-25T07:23:17.428Z,103336.55
2018-02-25T07:25:45.816Z,103337.72
2018-02-25T07:28:14.194Z,103336.95
2018-02-25T07:30:42.593Z,103338.37
2018-02-25T07:33:11.372Z,103335.44
2018-02-25T07:35:39.773Z,103332.06
2018-02-25T07:38:09.007Z,103327.91
2018-02-25T07:40:37.586Z,103334.95
2018-02-25T07:43:05.999Z,103326.82
2018-02-25T07:45:34.380Z,103327.00
2018-02-25T07:48:02.794Z,103336.14
2018-02-25T07:50:31.931Z,103345.75
2018-02-25T07:53:00.354Z,103339.86
2018-02-25T07:55:29.542Z,103341.78
2018-02-25T07:57:59.419Z,103348.87
2018-02-25T08:00:27.768Z,103348.63
2018-02-25T08:02:56.102Z,103354.38
2018-02-25T08:05:24.475Z,103350.00
2018-02-25T08:07:53.752Z,103351.68
2018-02-25T08:10:22.155Z,103355.66
2018-02-25T08:12:50.531Z,103355.82
2018-02-25T08:15:19.112Z,103361.66
2018-02-25T08:17:47.469Z,103365.63
2018-02-25T08:20:15.960Z,103365.17
2018-02-25T08:22:45.105Z,103373.56
2018-02-25T08:25:13.516Z,103374.94
2018-02-25T08:27:41.885Z,103375.84
2018-02-25T08:30:10.652Z,103376.98
2018-02-25T08:32:39.059Z,103375.89
2018-02-25T08:35:07.512Z,103380.62
2018-02-25T08:37:35.938Z,103393.38
2018-02-25T08:40:05.089Z,103396.55
2018-02-25T08:42:33.448Z,103399.61
2018-02-25T08:45:02.915Z,103397.49
2018-02-25T08:47:35.753Z,103393.63
2018-02-25T08:50:04.227Z,103392.92
2018-02-25T08:52:36.228Z,103398.53
2018-02-25T08:55:05.542Z,103393.66
2018-02-25T08:57:36.882Z,103392.87
2018-02-25T09:00:06.527Z,103392.02
2018-02-25T09:02:34.882Z,103398.11
2018-02-25T09:05:03.263Z,103393.58
2018-02-25T09:07:33.810Z,103392.09
2018-02-25T09:10:03.834Z,103393.92
2018-02-25T09:12:32.225Z,103388.05
2018-02-25T09:15:00.553Z,103383.48
2018-02-25T09:17:28.933Z,103381.59
2018-02-25T09:19:57.297Z,103386.86
2018-02-25T09:22:25.635Z,103387.41
2018-02-25T09:24:53.996Z,103387.02
2018-02-25T09:27:22.498Z,103384.84
2018-02-25T09:29:50.865Z,103388.94
2018-02-25T09:32:19.200Z,103384.25
2018-02-25T09:34:47.564Z,103389.92
2018-02-25T09:37:16.700Z,103383.67
2018-02-25T09:39:45.117Z,103374.98
2018-02-25T09:42:13.503Z,103381.63
2018-02-25T09:44:42.709Z,103382.84
2018-02-25T09:47:11.107Z,103390.17
2018-02-25T09:49:40.423Z,103378.27
2018-02-25T09:52:09.880Z,103367.73
2018-02-25T09:54:38.237Z,103373.91
2018-02-25T09:57:06.706Z,103378.34
2018-02-25T09:59:35.067Z,103372.47
2018-02-25T10:02:03.511Z,103372.03
2018-02-25T10:04:31.810Z,103372.75
2018-02-25T10:07:00.152Z,103377.72
2018-02-25T10:09:28.480Z,103379.20
2018-02-25T10:11:56.873Z,103371.66
2018-02-25T10:14:25.210Z,103368.75
2018-02-25T10:16:53.546Z,103373.23
2018-02-25T10:19:22.631Z,103362.56
2018-02-25T10:21:50.960Z,103377.03
2018-02-25T10:24:19.307Z,103369.54
2018-02-25T10:26:47.642Z,103372.59
2018-02-25T10:29:16.000Z,103371.44
2018-02-25T10:31:44.307Z,103355.34
2018-02-25T10:34:12.628Z,103355.55
2018-02-25T10:36:41.694Z,103353.91
2018-02-25T10:39:10.055Z,103360.04
2018-02-25T10:41:38.467Z,103352.69
2018-02-25T10:44:07.641Z,103348.98
2018-02-25T10:46:35.960Z,103359.28
2018-02-25T10:49:05.048Z,103360.36
2018-02-25T10:51:33.445Z,103352.16
2018-02-25T10:54:02.547Z,103353.93
2018-02-25T10:56:31.747Z,103345.61
2018-02-25T10:59:00.834Z,103339.87
2018-02-25T11:01:29.920Z,103336.20
2018-02-25T11:03:58.231Z,103337.63
2018-02-25T11:06:27.330Z,103334.02
2018-02-25T11:08:55.660Z,103332.16
2018-02-25T11:11:24.009Z,103335.41
2018-02-25T11:13:52.308Z,103343.32
2018-02-25T11:16:20.709Z,103339.69
2018-02-25T11:18:49.029Z,103338.09
2018-02-25T11:21:17.336Z,103336.70
2018-02-25T11:23:45.663Z,103335.34
2018-02-25T11:26:13.973Z,103340.73
2018-02-25T11:28:43.049Z,103338.42
2018-02-25T11:31:11.381Z,103339.52
2018-02-25T11:33:39.689Z,103336.84
2018-02-25T11:36:08.001Z,103339.53
2018-02-25T11:38:37.082Z,103336.80
2018-02-25T11:41:05.415Z,103324.01
2018-02-25T11:43:33.770Z,103321.47
2018-02-25T11:46:02.871Z,103318.73
2018-02-25T11:48:31.949Z,103318.75
2018-02-25T11:51:01.027Z,103308.42
2018-02-25T11:53:29.349Z,103309.23
2018-02-25T11:55:57.663Z,103306.33
2018-02-25T11:58:26.005Z,103306.18
2018-02-25T12:00:55.152Z,103305.58
2018-02-25T12:03:23.473Z,103304.54
2018-02-25T12:05:52.551Z,103309.42
2018-02-25T12:08:20.870Z,103302.75
2018-02-25T12:10:49.923Z,103292.64
2018-02-25T12:13:18.302Z,103299.75
2018-02-25T12:15:46.625Z,103294.88
2018-02-25T12:18:15.708Z,103291.54
2018-02-25T12:20:44.005Z,103298.62
2018-02-25T12:23:12.335Z,103292.08
2018-02-25T12:25:41.507Z,103287.37
2018-02-25T12:28:09.801Z,103292.19
2018-02-25T12:30:38.123Z,103278.78
2018-02-25T12:33:06.454Z,103285.06
2018-02-25T12:35:36.857Z,103270.08
2018-02-25T12:38:05.938Z,103276.16
2018-02-25T12:40:34.232Z,103269.16
2018-02-25T12:43:03.322Z,103267.23
2018-02-25T12:45:32.415Z,103273.44
2018-02-25T12:48:00.770Z,103263.39
2018-02-25T12:50:29.089Z,103262.18
2018-02-25T12:56:42.346Z,103256.08
2018-02-25T12:59:11.439Z,103249.17
2018-02-25T13:01:39.775Z,103241.53
2018-02-25T13:04:08.755Z,103244.61
2018-02-25T13:06:37.091Z,103251.02
2018-02-25T13:09:05.436Z,103250.84
2018-02-25T13:11:33.779Z,103242.23
2018-02-25T13:14:02.880Z,103251.47
2018-02-25T13:16:31.198Z,103254.96
2018-02-25T13:18:59.522Z,103252.56
2018-02-25T13:21:27.843Z,103261.53
2018-02-25T13:23:56.331Z,103247.77
2018-02-25T13:26:24.669Z,103250.75
2018-02-25T13:28:53.755Z,103236.98
2018-02-25T13:31:22.077Z,103241.31
2018-02-25T13:33:50.399Z,103240.00
2018-02-25T13:36:19.504Z,103239.95
2018-02-25T13:38:47.821Z,103241.62
2018-02-25T13:41:17.713Z,103238.49
2018-02-25T13:43:46.039Z,103238.94
2018-02-25T13:46:14.357Z,103235.12
2018-02-25T13:48:42.787Z,103232.25
2018-02-25T13:51:11.100Z,103224.57
2018-02-25T13:53:39.458Z,103217.78
2018-02-25T13:56:07.793Z,103215.98
2018-02-25T13:58:36.147Z,103217.80
2018-02-25T14:01:04.460Z,103224.80
2018-02-25T14:03:32.792Z,103222.34
2018-02-25T14:06:01.119Z,103215.49
2018-02-25T14:08:29.441Z,103221.42
2018-02-25T14:10:57.767Z,103213.36
2018-02-25T14:13:26.074Z,103221.82
2018-02-25T14:15:55.155Z,103211.48
2018-02-25T14:18:23.459Z,103220.63
2018-02-25T14:20:52.529Z,103218.27
2018-02-25T14:23:20.842Z,103211.66
2018-02-25T14:25:49.933Z,103212.83
2018-02-25T14:28:19.047Z,103209.44
2018-02-25T14:30:47.378Z,103209.06
2018-02-25T14:33:15.697Z,103204.12
2018-02-25T14:35:44.788Z,103207.11
2018-02-25T14:38:13.914Z,103209.89
2018-02-25T14:40:42.230Z,103206.16
2018-02-25T14:43:10.595Z,103200.02
2018-02-25T14:45:38.899Z,103199.57
2018-02-25T14:48:07.240Z,103188.14
2018-02-25T14:50:35.578Z,103201.56
2018-02-25T14:53:04.665Z,103200.56
2018-02-25T14:55:32.987Z,103195.13
2018-02-25T14:58:02.093Z,103199.75
2018-02-25T15:00:30.402Z,103208.88
2018-02-25T15:02:58.721Z,103195.84
2018-02-25T15:05:27.077Z,103199.52
2018-02-25T15:07:55.397Z,103200.08
2018-02-25T15:10:24.747Z,103195.84
2018-02-25T15:12:53.088Z,103201.11
2018-02-25T15:15:22.199Z,103201.50
2018-02-25T15:17:50.632Z,103199.11
2018-02-25T15:20:18.999Z,103197.25
2018-02-25T15:22:47.310Z,103201.95
2018-02-25T15:25:15.759Z,103194.80
2018-02-25T15:27:44.158Z,103207.34
2018-02-25T15:30:12.471Z,103203.68
2018-02-25T15:32:41.605Z,103200.73
2018-02-25T15:35:09.929Z,103192.14
2018-02-25T15:37:38.252Z,103193.27
2018-02-25T15:40:06.592Z,103195.20
2018-02-25T15:42:34.933Z,103191.87
2018-02-25T15:45:03.281Z,103192.17
2018-02-25T15:47:31.633Z,103189.13
2018-02-25T15:50:00.111Z,103202.62
2018-02-25T15:52:28.563Z,103202.56
2018-02-25T15:54:57.005Z,103204.88
2018-02-25T15:57:26.144Z,103212.72
2018-02-25T15:59:54.484Z,103214.36
2018-02-25T16:02:23.557Z,103209.16
2018-02-25T16:04:51.910Z,103203.30
2018-02-25T16:07:20.398Z,103202.91
2018-02-25T16:09:48.708Z,103213.55
2018-02-25T16:12:17.033Z,103219.72
2018-02-25T16:14:45.337Z,103212.85
2018-02-25T16:17:13.663Z,103220.69
2018-02-25T16:19:41.983Z,103211.80
2018-02-25T16:22:10.493Z,103212.86
2018-02-25T16:24:38.819Z,103226.59
2018-02-25T16:27:08.480Z,103212.41
2018-02-25T16:29:36.801Z,103220.12
2018-02-25T16:32:05.911Z,103226.31
2018-02-25T16:34:35.010Z,103222.17
2018-02-25T16:37:04.998Z,103232.48
2018-02-25T16:39:33.335Z,103227.70
2018-02-25T16:42:01.649Z,103221.23
2018-02-25T16:44:30.747Z,103226.77
2018-02-25T16:46:59.081Z,103236.53
2018-02-25T16:49:27.405Z,103230.61
2018-02-25T16:51:55.723Z,103232.06
2018-02-25T16:54:24.852Z,103234.60
2018-02-25T16:56:53.181Z,103240.48
2018-02-25T16:59:21.483Z,103244.30
2018-02-25T17:01:50.653Z,103239.48
2018-02-25T17:04:19.005Z,103238.31
2018-02-25T17:06:47.319Z,103241.86
2018-02-25T17:09:15.647Z,103239.53
2018-02-25T17:11:44.006Z,103236.41
2018-02-25T17:14:13.128Z,103238.51
2018-02-25T17:16:41.567Z,103239.11
2018-02-25T17:19:09.886Z,103245.26
2018-02-25T17:21:38.203Z,103240.21
2018-02-25T17:24:06.506Z,103244.75
2018-02-25T17:26:34.840Z,103245.72
2018-02-25T17:29:03.192Z,103244.45
2018-02-25T17:31:32.251Z,103252.73
2018-02-25T17:34:00.553Z,103250.59
2018-02-25T17:36:28.873Z,103255.58
2018-02-25T17:38:57.348Z,103255.30
2018-02-25T17:41:25.660Z,103250.59
2018-02-25T17:43:53.971Z,103257.85
2018-02-25T17:46:22.317Z,103257.22
2018-02-25T17:48:50.656Z,103258.94
2018-02-25T17:51:19.726Z,103255.86
2018-02-25T17:53:48.934Z,103264.78
2018-02-25T17:56:17.253Z,103264.74
2018-02-25T17:58:45.579Z,103263.72
2018-02-25T18:01:13.911Z,103266.88
2018-02-25T18:03:42.218Z,103261.52
2018-02-25T18:06:10.531Z,103256.20
2018-02-25T18:08:38.843Z,103256.59
2018-02-25T18:11:08.051Z,103260.95
2018-02-25T18:13:36.374Z,103263.80
2018-02-25T18:16:04.687Z,103258.65
2018-02-25T18:18:33.783Z,103266.64
2018-02-25T18:21:02.099Z,103263.58
2018-02-25T18:23:30.424Z,103258.54
2018-02-25T18:25:58.772Z,103265.61
2018-02-25T18:28:27.104Z,103257.05
2018-02-25T18:30:55.419Z,103259.29
2018-02-25T18:33:23.735Z,103253.00
2018-02-25T18:35:52.058Z,103251.83
2018-02-25T18:38:21.139Z,103255.98
2018-02-25T18:40:49.464Z,103262.77
2018-02-25T18:43:17.796Z,103256.23
2018-02-25T18:45:46.139Z,103254.56
2018-02-25T18:48:14.486Z,103260.45
2018-02-25T18:50:43.606Z,103263.69
2018-02-25T18:53:12.000Z,103260.35
2018-02-25T18:55:40.341Z,103265.81
2018-02-25T18:58:09.455Z,103264.78
2018-02-25T19:00:37.771Z,103259.39
2018-02-25T19:03:06.131Z,103267.56
2018-02-25T19:05:34.445Z,103274.37
2018-02-25T19:08:02.802Z,103279.29
2018-02-25T19:10:31.121Z,103280.16
2018-02-25T19:12:59.449Z,103280.87
2018-02-25T19:15:27.796Z,103290.84
2018-02-25T19:17:56.988Z,103294.06
2018-02-25T19:20:25.315Z,103291.05
2018-02-25T19:22:53.642Z,103285.25
2018-02-25T19:25:21.959Z,103295.68
2018-02-25T19:27:50.319Z,103294.63
2018-02-25T19:30:18.639Z,103297.84
2018-02-25T19:32:46.968Z,103303.63
2018-02-25T19:35:15.289Z,103309.13
2018-02-25T19:37:49.193Z,103302.34
2018-02-25T19:40:23.078Z,103308.64
2018-02-25T19:42:52.173Z,103305.36
2018-02-25T19:45:21.263Z,103296.92
2018-02-25T19:47:50.380Z,103307.56
2018-02-25T19:50:19.465Z,103309.48
2018-02-25T19:52:47.793Z,103317.84
2018-02-25T19:55:16.129Z,103312.81
2018-02-25T19:57:44.486Z,103320.59
2018-02-25T20:00:12.817Z,103313.90
2018-02-25T20:02:41.148Z,103315.67
2018-02-25T20:05:09.477Z,103316.69
2018-02-25T20:07:37.807Z,103315.64
2018-02-25T20:10:06.117Z,103314.95
2018-02-25T20:12:34.473Z,103313.17
2018-02-25T20:15:02.916Z,103320.34
2018-02-25T20:17:31.253Z,103317.16
2018-02-25T20:19:59.614Z,103320.39
2018-02-25T20:22:27.961Z,103323.86
2018-02-25T20:24:56.309Z,103319.25
2018-02-25T20:27:25.396Z,103317.73
2018-02-25T20:29:53.718Z,103324.50
2018-02-25T20:32:22.053Z,103329.73
2018-02-25T20:34:50.383Z,103327.42
2018-02-25T20:37:18.702Z,103330.45
2018-02-25T20:39:47.027Z,103326.97
2018-02-25T20:42:15.367Z,103333.56
2018-02-25T20:44:43.690Z,103335.88
2018-02-25T20:47:12.021Z,103339.59
2018-02-25T20:49:40.370Z,103346.08
2018-02-25T20:52:08.690Z,103336.12
2018-02-25T20:54:37.026Z,103338.03
2018-02-25T20:57:05.393Z,103347.57
2018-02-25T20:59:33.701Z,103353.27
2018-02-25T21:02:02.068Z,103347.54
2018-02-25T21:04:30.402Z,103355.49
2018-02-25T21:06:58.717Z,103351.69
2018-02-25T21:09:27.042Z,103347.33
2018-02-25T21:11:56.119Z,103341.32
2018-02-25T21:14:24.470Z,103351.70
2018-02-25T21:16:53.562Z,103345.08
2018-02-25T21:19:22.676Z,103352.08
2018-02-25T21:21:50.997Z,103352.20
2018-02-25T21:24:19.377Z,103350.84
2018-02-25T21:26:47.656Z,103354.05
2018-02-25T21:29:15.990Z,103343.84
2018-02-25T21:31:44.310Z,103346.69
2018-02-25T21:34:12.661Z,103349.81
2018-02-25T21:36:40.980Z,103348.02
2018-02-25T21:39:09.315Z,103346.17
2018-02-25T21:41:37.684Z,103342.38
2018-02-25T21:44:06.776Z,103345.08
2018-02-25T21:46:35.873Z,103349.58
2018-02-25T21:49:04.961Z,103350.57
2018-02-25T21:51:34.084Z,103346.47
2018-02-25T21:54:03.225Z,103352.86
2018-02-25T21:56:37.220Z,103353.88
2018-02-25T21:59:11.097Z,103363.65
2018-02-25T22:01:45.756Z,103368.19
2018-02-25T22:04:14.124Z,103372.45
2018-02-25T22:06:42.477Z,103369.87
2018-02-25T22:09:11.555Z,103371.52
2018-02-25T22:11:40.611Z,103360.58
2018-02-25T22:14:08.957Z,103365.78
2018-02-25T22:16:38.139Z,103363.70
2018-02-25T22:19:06.468Z,103374.64
2018-02-25T22:21:34.790Z,103374.80
2018-02-25T22:24:03.958Z,103369.33
2018-02-25T22:26:32.269Z,103366.38
2018-02-25T22:29:00.615Z,103378.16
2018-02-25T22:31:28.928Z,103372.88
2018-02-25T22:33:57.246Z,103369.06
2018-02-25T22:36:26.371Z,103371.33
2018-02-25T22:38:54.705Z,103379.81
2018-02-25T22:41:23.812Z,103382.09
2018-02-25T22:43:52.172Z,103383.11
2018-02-25T22:46:20.488Z,103378.22
2018-02-25T22:48:48.847Z,103391.60
2018-02-25T22:51:17.931Z,103380.69
2018-02-25T22:53:46.260Z,103386.95
2018-02-25T22:56:14.592Z,103382.88
2018-02-25T22:58:42.932Z,103392.06
2018-02-25T23:01:11.256Z,103389.44
2018-02-25T23:03:39.559Z,103395.58
2018-02-25T23:06:07.899Z,103392.09
2018-02-25T23:08:36.229Z,103394.55
2018-02-25T23:11:04.608Z,103386.14
2018-02-25T23:13:33.072Z,103397.72
2018-02-25T23:16:01.374Z,103404.44
2018-02-25T23:18:29.722Z,103405.11
2018-02-25T23:20:58.065Z,103399.02
2018-02-25T23:23:26.388Z,103397.77
2018-02-25T23:25:54.708Z,103403.58
2018-02-25T23:28:23.038Z,103401.06
2018-02-25T23:30:51.348Z,103403.36
2018-02-25T23:33:20.460Z,103402.43
2018-02-25T23:35:48.788Z,103402.64
2018-02-25T23:38:17.162Z,103407.95
2018-02-25T23:40:45.522Z,103404.53
2018-02-25T23:43:13.870Z,103399.64
2018-02-25T23:45:42.968Z,103395.76
2018-02-25T23:48:12.050Z,103398.20
2018-02-25T23:50:40.377Z,103396.23
2018-02-25T23:53:08.704Z,103398.17
2018-02-25T23:55:37.030Z,103395.28
2018-02-25T23:58:05.352Z,103405.43
